Latest Weather Observations for Moss Vale

IDN60801

Issued at 10:35 pm EDT Friday 31 October 2014 (issued every 30 minutes, with the page automatically refreshed every 10 minutes)

About weather observations | Map of weather stations | Latest weather observations for NSW | Other Formats
Station Details ID: 068239 Name: MOSS VALE AWS Lat: -34.53 Lon: 150.42 Height: 678.4 m
Data from the previous 72 hours. | See also: Recent months at Moss Vale
Date/Time
EDT
Temp
°C
App
Temp
°C
Dew
Point
Rel
Hum
%
Delta-T
°C
Wind Press
QNH
hPa
Press
MSL
hPa
Rain
since 9 am
mm
Dir
 
Spd
km/h
Gust
km/h
Spd
kts
Gust
kts
31/10:30pm 18.9 13.5 6.4 44 6.5 NNE 24 30 13 16 1010.0 1008.7 0.0
31/10:00pm 20.0 15.1 6.7 42 7.0 N 22 28 12 15 1010.4 1009.1 0.0
31/09:30pm 20.0 14.7 6.7 42 6.9 NNE 24 32 13 17 1010.6 1009.3 0.0
31/09:00pm 20.2 14.8 6.2 40 7.3 NNE 24 33 13 18 1010.6 1009.3 0.0
31/08:30pm 21.3 15.1 6.0 37 7.9 NNE 28 33 15 18 1010.3 1009.0 0.0
31/08:00pm 20.8 15.5 6.7 40 7.4 NNE 24 30 13 16 1010.3 1009.0 0.0
31/07:30pm 22.2 17.4 7.2 38 8.0 NNE 22 28 12 15 1010.2 1008.9 0.0
31/07:00pm 23.4 18.3 5.8 32 9.2 NNE 22 30 12 16 1010.1 1008.8 0.0
31/06:30pm 26.1 21.7 2.7 22 11.8 NW 15 17 8 9 1010.1 1008.8 0.0
31/06:00pm 27.3 23.8 5.6 25 11.6 WNW 13 20 7 11 1010.1 1008.8 0.0
31/05:30pm 27.1 22.0 2.9 21 12.3 NW 19 32 10 17 1010.2 1008.9 0.0
31/05:00pm 27.2 22.2 3.7 22 12.2 WNW 19 30 10 16 1010.1 1008.8 0.0
31/04:30pm 28.5 22.3 1.9 18 13.4 NW 24 33 13 18 1010.1 1008.8 0.0
31/04:00pm 28.3 23.5 5.8 24 12.1 NW 20 35 11 19 1010.3 1009.0 0.0
31/03:30pm 29.0 25.2 7.6 26 11.9 WNW 17 26 9 14 1010.6 1009.3 0.0
31/03:00pm 28.9 23.8 3.0 19 13.4 NW 19 28 10 15 1010.9 1009.7 0.0
31/02:30pm 28.7 22.5 4.2 21 12.9 WNW 26 39 14 21 1011.6 1010.3 0.0
31/02:00pm 28.6 23.3 4.8 22 12.6 W 22 30 12 16 1011.9 1010.6 0.0
31/01:30pm 28.5 23.1 4.7 22 12.6 NW 22 35 12 19 1012.3 1011.1 0.0
31/01:00pm 28.1 23.2 5.0 23 12.3 NNW 20 24 11 13 1012.7 1011.5 0.0
31/12:30pm 27.8 22.8 4.8 23 12.2 WNW 20 26 11 14 1013.2 1011.9 0.0
31/12:00pm 27.4 22.4 4.5 23 12.0 W 20 30 11 16 1013.8 1012.6 0.0
31/11:30am 26.8 21.1 2.7 21 12.2 NW 22 33 12 18 1014.2 1013.0 0.0
31/11:00am 26.5 21.1 4.3 24 11.5 NW 22 33 12 18 1014.6 1013.4 0.0
31/10:30am 26.3 22.2 8.8 33 9.8 NNW 20 28 11 15 1015.2 1014.0 0.0
31/10:00am 25.4 21.0 6.6 30 10.1 NNW 19 28 10 15 1015.3 1014.1 0.0
31/09:30am 24.1 18.6 4.0 27 10.2 NNW 22 33 12 18 1015.3 1014.1 0.0
31/09:00am 23.3 19.0 7.0 35 8.7 N 19 24 10 13 1015.4 1014.2 0.0
31/08:30am 21.3 18.8 6.4 38 7.8 NNW 9 15 5 8 1015.4 1014.2 0.0
31/08:00am 17.3 15.9 8.7 57 4.6 N 6 11 3 6 1015.0 1013.8 0.0
31/07:30am 14.0 13.1 11.3 84 1.5 NNE 7 9 4 5 1014.8 1013.6 0.0
31/07:00am 9.5 7.9 7.9 90 0.8 N 6 9 3 5 1014.6 1013.4 0.0
31/06:30am 7.6 6.8 6.5 93 0.5 CALM 0 9 0 5 1014.6 1013.4 0.0
31/06:00am 7.1 6.2 6.0 93 0.5 NNE 0 0 0 0 1014.4 1013.2 0.0
31/05:30am 7.4 6.6 6.3 93 0.5 CALM 0 0 0 0 1014.4 1013.2 0.0
31/05:00am 7.6 6.8 6.4 92 0.6 NW 0 0 0 0 1014.3 1013.1 0.0
31/04:30am 7.8 7.0 6.4 91 0.7 CALM 0 0 0 0 1014.4 1013.2 0.0
31/04:00am 7.9 7.1 6.4 90 0.7 CALM 0 0 0 0 1014.8 1013.6 0.0
31/03:30am 8.3 7.6 6.9 91 0.7 CALM 0 0 0 0 1014.9 1013.7 0.0
31/03:00am 8.6 7.8 6.4 86 1.1 CALM 0 0 0 0 1014.9 1013.7 0.0
31/02:30am 9.2 8.4 6.6 84 1.3 CALM 0 0 0 0 1015.0 1013.8 0.0
31/02:00am 9.3 7.8 6.9 85 1.2 NE 4 6 2 3 1015.3 1014.1 0.0
31/01:30am 10.1 9.4 6.8 80 1.6 CALM 0 0 0 0 1015.6 1014.4 0.0
31/01:00am 9.7 8.3 7.1 84 1.3 NNE 4 7 2 4 1016.0 1014.9 0.0
31/12:30am 11.4 8.9 6.7 73 2.3 SSE 9 11 5 6 1016.1 1015.0 0.0
31/12:00am 10.1 7.4 5.7 74 2.1 SE 9 13 5 7 1016.3 1015.1 0.0
 
Date/Time
EDT
Temp
°C
App
Temp
°C
Dew
Point
Rel
Hum
%
Delta-T
°C
Wind Press
QNH
hPa
Press
MSL
hPa
Rain
since 9 am
mm
Dir
 
Spd
km/h
Gust
km/h
Spd
kts
Gust
kts
30/11:30pm 12.6 10.0 6.2 65 3.1 NNE 9 11 5 6 1016.3 1015.1 0.0
30/11:00pm 12.7 10.4 7.4 70 2.7 NE 9 11 5 6 1016.4 1015.2 0.0
30/10:30pm 12.7 10.7 7.0 68 2.9 NNE 7 9 4 5 1016.3 1015.1 0.0
30/10:00pm 15.0 13.9 5.0 51 4.9 CALM 0 0 0 0 1016.1 1015.0 0.0
30/09:30pm 16.0 13.9 5.6 50 5.2 NE 6 7 3 4 1016.0 1014.9 0.0
30/09:00pm 17.1 14.7 5.4 46 5.8 N 7 9 4 5 1015.7 1014.5 0.0
30/08:30pm 18.2 15.6 4.4 40 6.8 N 7 7 4 4 1015.5 1014.3 0.0
30/08:00pm 18.6 16.0 4.4 39 7.0 N 7 9 4 5 1015.2 1014.0 0.0
30/07:30pm 20.9 17.3 3.2 31 8.7 WNW 11 19 6 10 1014.8 1013.6 0.0
30/07:00pm 21.8 17.2 3.5 30 9.1 W 17 26 9 14 1014.5 1013.3 0.0
30/06:30pm 22.7 17.6 4.2 30 9.4 W 20 33 11 18 1014.3 1013.1 0.0
30/06:00pm 23.3 17.4 3.8 28 9.8 W 24 35 13 19 1014.0 1012.8 0.0
30/05:30pm 23.8 18.4 4.7 29 9.8 W 22 30 12 16 1013.9 1012.7 0.0
30/05:00pm 24.1 18.7 4.5 28 10.1 W 22 33 12 18 1013.8 1012.6 0.0
30/04:30pm 24.0 17.4 4.4 28 10.0 W 28 48 15 26 1013.7 1012.5 0.0
30/04:28pm 24.0 17.0 2.2 24 10.7 W 28 48 15 26 1013.7 1012.5 0.0
30/04:00pm 23.9 16.4 1.5 23 10.9 WSW 30 39 16 21 1013.7 1012.5 0.0
30/03:30pm 23.8 17.4 5.2 30 9.7 SW 28 37 15 20 1014.0 1012.8 0.0
30/03:00pm 23.6 17.1 4.5 29 9.8 W 28 39 15 21 1014.2 1013.0 0.0
30/02:30pm 23.5 18.4 5.9 32 9.2 W 22 32 12 17 1014.5 1013.3 0.0
30/02:00pm 23.2 17.8 6.5 34 8.8 W 24 35 13 19 1015.1 1013.9 0.0
30/01:30pm 22.3 15.1 4.8 32 8.9 SW 32 41 17 22 1015.2 1014.0 0.0
30/01:00pm 22.3 16.7 5.3 33 8.8 SW 24 37 13 20 1015.5 1014.3 0.0
30/12:30pm 21.5 15.7 6.2 37 8.0 WSW 26 39 14 21 1015.6 1014.4 0.0
30/12:00pm 20.9 15.1 6.4 39 7.6 WSW 26 39 14 21 1015.8 1014.6 0.0
30/11:30am 20.2 13.5 5.8 39 7.4 W 30 41 16 22 1016.1 1015.0 0.0
30/11:00am 19.3 13.1 7.7 47 6.1 W 30 37 16 20 1016.1 1015.0 0.0
30/10:30am 18.5 14.6 8.7 53 5.3 W 19 28 10 15 1016.6 1015.4 0.0
30/10:00am 17.4 12.9 6.9 50 5.4 W 20 28 11 15 1016.5 1015.3 0.0
30/09:30am 16.9 14.2 10.5 66 3.5 W 15 20 8 11 1016.6 1015.4 0.0
30/09:00am 15.1 12.4 8.8 66 3.3 W 13 17 7 9 1016.7 1015.5 0.2
30/08:30am 14.1 12.8 9.9 76 2.3 W 7 13 4 7 1016.8 1015.6 0.2
30/08:00am 13.9 13.1 9.5 75 2.3 WNW 4 11 2 6 1016.7 1015.5 0.2
30/07:30am 11.9 11.0 10.6 92 0.7 NE 6 7 3 4 1016.6 1015.4 0.2
30/07:05am 10.3 8.5 9.5 95 0.4 NE 9 11 5 6 1016.5 1015.3 0.2
30/07:00am 9.9 8.0 9.1 95 0.4 NE 9 11 5 6 1016.4 1015.2 0.2
30/06:30am 9.3 7.6 8.5 95 0.4 NNE 7 9 4 5 1016.1 1015.0 0.2
30/06:00am 8.7 6.5 7.8 94 0.4 NNE 9 9 5 5 1015.8 1014.6 0.2
30/05:30am 10.0 8.5 9.1 94 0.5 N 7 9 4 5 1015.8 1014.6 0.2
30/05:00am 10.7 8.6 9.8 94 0.5 N 11 13 6 7 1015.8 1014.6 0.2
30/04:30am 11.2 9.2 10.3 94 0.5 N 11 17 6 9 1015.6 1014.4 0.2
30/04:22am 10.9 8.8 9.8 93 0.6 N 11 17 6 9 1015.6 1014.4 0.2
30/04:03am 11.4 8.7 10.5 94 0.5 N 15 20 8 11 1015.5 1014.3 0.0
30/04:00am 11.3 8.6 10.2 93 0.6 N 15 17 8 9 1015.6 1014.4 0.0
30/03:43am 11.5 9.2 10.4 93 0.6 N 13 17 7 9 1015.7 1014.5 0.0
30/03:30am 11.3 8.9 10.2 93 0.6 N 13 17 7 9 1015.8 1014.6 0.0
30/03:00am 11.6 9.3 10.5 93 0.6 N 13 17 7 9 1016.0 1014.9 0.0
30/02:50am 11.6 9.3 10.3 92 0.7 N 13 17 7 9 1016.1 1015.0 0.0
30/02:30am 11.7 9.4 10.4 92 0.7 N 13 19 7 10 1016.4 1015.2 0.0
30/02:10am 12.4 10.3 11.1 92 0.7 N 13 19 7 10 1016.6 1015.4 0.0
30/02:00am 12.3 9.8 11.2 93 0.6 N 15 20 8 11 1016.6 1015.4 0.0
30/01:30am 12.0 9.4 10.7 92 0.7 N 15 22 8 12 1016.8 1015.6 0.0
30/01:00am 12.4 10.0 11.3 93 0.6 N 15 19 8 10 1017.0 1015.8 0.0
30/12:52am 12.1 9.9 10.8 92 0.7 NNE 13 19 7 10 1017.1 1015.9 0.0
30/12:50am 12.2 10.1 11.1 93 0.6 N 13 19 7 10 1017.1 1015.9 0.0
30/12:30am 12.2 9.7 11.1 93 0.6 NNE 15 19 8 10 1017.2 1016.0 0.0
30/12:25am 12.3 9.8 11.0 92 0.7 NNE 15 17 8 9 1017.3 1016.2 0.0
30/12:22am 12.4 10.0 11.3 93 0.6 NNE 15 19 8 10 1017.4 1016.3 0.0
30/12:00am 12.4 10.0 11.3 93 0.6 NNE 15 17 8 9 1017.5 1016.4 0.0
 
Date/Time
EDT
Temp
°C
App
Temp
°C
Dew
Point
Rel
Hum
%
Delta-T
°C
Wind Press
QNH
hPa
Press
MSL
hPa
Rain
since 9 am
mm
Dir
 
Spd
km/h
Gust
km/h
Spd
kts
Gust
kts
29/11:32pm 12.6 10.6 11.5 93 0.6 NNE 13 19 7 10 1017.6 1016.5 0.0
29/11:30pm 12.4 10.3 11.3 93 0.6 NNE 13 17 7 9 1017.6 1016.5 0.0
29/11:00pm 12.7 10.0 11.6 93 0.6 NNE 17 20 9 11 1017.6 1016.5 0.0
29/10:30pm 12.9 9.7 11.8 93 0.6 NNE 20 32 11 17 1017.4 1016.3 0.0
29/10:00pm 13.1 9.2 12.0 93 0.6 NNE 24 32 13 17 1017.4 1016.3 0.0
29/09:51pm 13.1 9.9 12.0 93 0.6 NNE 20 26 11 14 1017.4 1016.3 0.0
29/09:41pm 13.0 9.7 11.7 92 0.7 NNE 20 26 11 14 1017.5 1016.4 0.0
29/09:30pm 13.0 10.3 11.7 92 0.7 NNE 17 26 9 14 1017.6 1016.5 0.0
29/09:21pm 13.1 10.4 11.8 92 0.7 NNE 17 22 9 12 1017.6 1016.5 0.0
29/09:00pm 13.3 10.3 11.9 91 0.8 NNE 19 24 10 13 1017.5 1016.4 0.0
29/08:48pm 13.5 9.6 12.1 91 0.8 NNE 24 32 13 17 1017.3 1016.2 0.0
29/08:30pm 13.5 10.5 12.1 91 0.8 NNE 19 28 10 15 1017.3 1016.2 0.0
29/08:00pm 13.6 11.8 12.0 90 0.9 NE 13 19 7 10 1017.2 1016.0 0.0
29/07:34pm 13.8 11.6 12.0 89 1.0 NE 15 19 8 10 1017.0 1015.8 0.0
29/07:30pm 13.9 11.7 12.1 89 1.0 NE 15 19 8 10 1016.9 1015.7 0.0
29/07:00pm 14.8 12.3 12.3 85 1.4 NNE 17 22 9 12 1016.5 1015.3 0.0
29/06:30pm 15.4 11.6 12.3 82 1.8 NE 24 32 13 17 1016.1 1015.0 0.0
29/06:00pm 16.1 13.2 13.0 82 1.8 ENE 20 28 11 15 1015.9 1014.7 0.0
29/05:30pm 17.9 14.8 13.4 75 2.6 NE 22 28 12 15 1015.7 1014.5 0.0
29/05:00pm 17.9 14.8 13.4 75 2.6 NE 22 33 12 18 1015.6 1014.4 0.0
29/04:30pm 18.3 14.2 12.7 70 3.2 NE 26 33 14 18 1015.4 1014.2 0.0
29/04:00pm 18.8 15.5 12.8 68 3.5 NNE 22 30 12 16 1015.7 1014.5 0.0
29/03:30pm 22.0 17.4 5.4 34 8.6 WNW 19 26 10 14 1015.8 1014.6 0.0
29/03:00pm 22.1 18.6 8.6 42 7.4 W 17 28 9 15 1016.0 1014.9 0.0
29/02:30pm 21.4 17.1 6.9 39 7.7 WNW 19 24 10 13 1016.4 1015.2 0.0
29/02:00pm 21.1 17.8 6.6 39 7.6 NW 13 20 7 11 1016.8 1015.6 0.0
29/01:30pm 20.3 16.4 5.5 38 7.6 WNW 15 22 8 12 1017.1 1015.9 0.0
29/01:00pm 20.0 15.8 7.4 44 6.7 WNW 19 20 10 11 1017.2 1016.0 0.0
29/12:30pm 19.3 16.5 7.1 45 6.4 WSW 11 22 6 12 1017.6 1016.5 0.0
29/12:00pm 18.5 14.7 7.6 49 5.7 WSW 17 28 9 15 1017.9 1016.7 0.0
29/11:30am 18.1 14.5 6.6 47 5.9 WSW 15 24 8 13 1018.2 1017.0 0.0
29/11:00am 17.3 12.8 7.1 51 5.3 SW 20 28 11 15 1018.5 1017.3 0.0
29/10:30am 16.9 12.6 7.8 55 4.8 WSW 20 26 11 14 1018.6 1017.5 0.0
29/10:00am 16.8 13.0 9.2 61 4.1 SW 19 26 10 14 1018.6 1017.5 0.0
29/09:30am 15.8 11.5 7.8 59 4.2 SSW 20 32 11 17 1018.4 1017.2 0.0
29/09:00am 14.9 10.6 7.0 59 4.0 WSW 19 22 10 12 1018.4 1017.2 0.0
29/08:30am 14.0 10.8 6.8 62 3.6 WSW 13 17 7 9 1018.3 1017.1 0.0
29/08:00am 12.8 8.7 6.4 65 3.2 WSW 17 24 9 13 1018.0 1016.8 0.0
29/07:30am 12.0 9.5 6.5 69 2.7 WSW 9 15 5 8 1017.5 1016.4 0.0
29/07:00am 10.7 8.8 6.5 75 2.0 S 6 7 3 4 1017.2 1016.0 0.0
29/06:30am 8.8 6.3 5.0 77 1.8 WSW 7 11 4 6 1016.9 1015.7 0.0
29/06:00am 9.0 5.5 5.4 78 1.7 W 13 17 7 9 1016.4 1015.2 0.0
29/05:30am 9.4 6.2 5.0 74 2.1 WSW 11 15 6 8 1016.1 1015.0 0.0
29/05:00am 9.6 6.8 5.0 73 2.2 SSW 9 13 5 7 1015.9 1014.7 0.0
29/04:30am 10.0 6.8 5.2 72 2.3 WSW 11 15 6 8 1015.9 1014.7 0.0
29/04:00am 10.5 7.3 5.1 69 2.6 WSW 11 17 6 9 1015.6 1014.4 0.0
29/03:30am 10.7 6.4 5.3 69 2.6 WSW 17 19 9 10 1015.4 1014.2 0.0
29/03:00am 10.6 7.8 5.2 69 2.6 SW 9 13 5 7 1015.4 1014.2 0.0
29/02:30am 10.8 7.2 5.1 68 2.7 WSW 13 20 7 11 1015.3 1014.1 0.0
29/02:00am 10.7 6.4 5.3 69 2.6 WSW 17 22 9 12 1015.3 1014.1 0.0
29/01:30am 10.8 7.2 4.9 67 2.8 SW 13 19 7 10 1015.4 1014.2 0.0
29/01:00am 11.6 7.6 5.0 64 3.1 WSW 15 22 8 12 1015.5 1014.3 0.0
29/12:30am 12.4 6.7 5.1 61 3.5 WSW 24 35 13 19 1015.4 1014.2 0.0
29/12:00am 11.7 8.8 4.7 62 3.3 S 9 13 5 7 1015.6 1014.4 0.0
 
Date/Time
EDT
Temp
°C
App
Temp
°C
Dew
Point
Rel
Hum
%
Delta-T
°C
Wind Press
QNH
hPa
Press
MSL
hPa
Rain
since 9 am
mm
Dir
 
Spd
km/h
Gust
km/h
Spd
kts
Gust
kts
28/11:30pm 12.4 7.6 4.9 60 3.6 WSW 19 28 10 15 1015.2 1014.0 0.0
28/11:00pm 12.7 7.8 5.1 60 3.7 WSW 20 30 11 16 1015.1 1013.9 0.0

Other Formats:

Comma delimited format used in spreadsheet applications
http://www.bom.gov.au/fwo/IDN60801/IDN60801.94746.axf

JavaScript Object Notation format (JSON) in row-major order
http://www.bom.gov.au/fwo/IDN60801/IDN60801.94746.json